sensor_id;sensor_type;location;lat;lon;timestamp;temperature;humidity
6556;DHT22;3311;48.32423000;14.29074500;2023-07-29T00:00:56;22.90;80.00
6556;DHT22;3311;48.32423000;14.29074500;2023-07-29T00:03:24;22.90;79.80
6556;DHT22;3311;48.32423000;14.29074500;2023-07-29T00:05:51;22.90;79.90
6556;DHT22;3311;48.32423000;14.29074500;2023-07-29T00:08:20;23.00;80.00
6556;DHT22;3311;48.32423000;14.29074500;2023-07-29T00:10:47;22.90;79.80
6556;DHT22;3311;48.32423000;14.29074500;2023-07-29T00:13:14;22.90;79.70
6556;DHT22;3311;48.32423000;14.29074500;2023-07-29T00:15:41;22.90;79.50
6556;DHT22;3311;48.32423000;14.29074500;2023-07-29T00:18:08;22.90;79.60
6556;DHT22;3311;48.32423000;14.29074500;2023-07-29T00:20:36;22.90;79.90
6556;DHT22;3311;48.32423000;14.29074500;2023-07-29T00:23:03;22.90;80.00
6556;DHT22;3311;48.32423000;14.29074500;2023-07-29T00:25:32;23.00;80.00
6556;DHT22;3311;48.32423000;14.29074500;2023-07-29T00:27:59;23.00;80.10
6556;DHT22;3311;48.32423000;14.29074500;2023-07-29T00:30:26;23.00;79.70
6556;DHT22;3311;48.32423000;14.29074500;2023-07-29T00:32:54;23.00;79.20
6556;DHT22;3311;48.32423000;14.29074500;2023-07-29T00:35:21;23.00;79.20
6556;DHT22;3311;48.32423000;14.29074500;2023-07-29T00:37:48;23.00;79.20
6556;DHT22;3311;48.32423000;14.29074500;2023-07-29T00:40:19;23.00;79.10
6556;DHT22;3311;48.32423000;14.29074500;2023-07-29T00:42:49;23.00;79.00
6556;DHT22;3311;48.32423000;14.29074500;2023-07-29T00:45:18;23.00;79.50
6556;DHT22;3311;48.32423000;14.29074500;2023-07-29T00:47:46;23.00;79.10
6556;DHT22;3311;48.32423000;14.29074500;2023-07-29T00:50:14;23.00;79.30
6556;DHT22;3311;48.32423000;14.29074500;2023-07-29T00:52:41;22.90;79.10
6556;DHT22;3311;48.32423000;14.29074500;2023-07-29T00:55:09;22.90;79.60
6556;DHT22;3311;48.32423000;14.29074500;2023-07-29T00:57:36;22.90;79.70
6556;DHT22;3311;48.32423000;14.29074500;2023-07-29T01:00:08;22.90;79.50
6556;DHT22;3311;48.32423000;14.29074500;2023-07-29T01:02:36;23.00;79.30
6556;DHT22;3311;48.32423000;14.29074500;2023-07-29T01:05:04;23.00;79.80
6556;DHT22;3311;48.32423000;14.29074500;2023-07-29T01:07:39;22.90;79.70
6556;DHT22;3311;48.32423000;14.29074500;2023-07-29T01:10:19;22.90;79.70
6556;DHT22;3311;48.32423000;14.29074500;2023-07-29T01:12:53;22.90;80.00
6556;DHT22;3311;48.32423000;14.29074500;2023-07-29T01:15:26;22.90;79.90
6556;DHT22;3311;48.32423000;14.29074500;2023-07-29T01:18:05;22.90;79.90
6556;DHT22;3311;48.32423000;14.29074500;2023-07-29T01:20:40;22.90;79.90
6556;DHT22;3311;48.32423000;14.29074500;2023-07-29T01:23:07;22.90;79.90
6556;DHT22;3311;48.32423000;14.29074500;2023-07-29T01:25:36;22.90;79.80
6556;DHT22;3311;48.32423000;14.29074500;2023-07-29T01:28:03;22.90;79.60
6556;DHT22;3311;48.32423000;14.29074500;2023-07-29T01:30:37;22.90;79.80
6556;DHT22;3311;48.32423000;14.29074500;2023-07-29T01:33:11;22.80;80.10
6556;DHT22;3311;48.32423000;14.29074500;2023-07-29T01:35:45;22.80;80.70
6556;DHT22;3311;48.32423000;14.29074500;2023-07-29T01:38:17;22.80;80.60
6556;DHT22;3311;48.32423000;14.29074500;2023-07-29T01:40:48;22.80;80.80
6556;DHT22;3311;48.32423000;14.29074500;2023-07-29T01:43:17;22.80;80.40
6556;DHT22;3311;48.32423000;14.29074500;2023-07-29T01:45:49;22.70;80.30
6556;DHT22;3311;48.32423000;14.29074500;2023-07-29T01:48:16;22.70;80.50
6556;DHT22;3311;48.32423000;14.29074500;2023-07-29T01:50:44;22.80;80.20
6556;DHT22;3311;48.32423000;14.29074500;2023-07-29T01:53:11;22.70;80.00
6556;DHT22;3311;48.32423000;14.29074500;2023-07-29T01:55:39;22.80;80.00
6556;DHT22;3311;48.32423000;14.29074500;2023-07-29T01:58:08;22.80;80.10
6556;DHT22;3311;48.32423000;14.29074500;2023-07-29T02:00:35;22.80;79.60
6556;DHT22;3311;48.32423000;14.29074500;2023-07-29T02:03:02;22.80;80.00
6556;DHT22;3311;48.32423000;14.29074500;2023-07-29T02:05:30;22.80;80.10
6556;DHT22;3311;48.32423000;14.29074500;2023-07-29T02:07:57;22.80;80.10
6556;DHT22;3311;48.32423000;14.29074500;2023-07-29T02:10:24;22.80;80.20
6556;DHT22;3311;48.32423000;14.29074500;2023-07-29T02:12:52;22.80;80.20
6556;DHT22;3311;48.32423000;14.29074500;2023-07-29T02:15:21;22.80;80.20
6556;DHT22;3311;48.32423000;14.29074500;2023-07-29T02:17:50;22.70;80.40
6556;DHT22;3311;48.32423000;14.29074500;2023-07-29T02:20:18;22.60;80.60
6556;DHT22;3311;48.32423000;14.29074500;2023-07-29T02:22:45;22.50;80.70
6556;DHT22;3311;48.32423000;14.29074500;2023-07-29T02:25:14;22.60;80.60
6556;DHT22;3311;48.32423000;14.29074500;2023-07-29T02:27:41;22.60;80.60
6556;DHT22;3311;48.32423000;14.29074500;2023-07-29T02:30:10;22.50;80.60
6556;DHT22;3311;48.32423000;14.29074500;2023-07-29T02:32:39;22.50;80.50
6556;DHT22;3311;48.32423000;14.29074500;2023-07-29T02:35:07;22.50;80.70
6556;DHT22;3311;48.32423000;14.29074500;2023-07-29T02:37:36;22.50;80.60
6556;DHT22;3311;48.32423000;14.29074500;2023-07-29T02:40:04;22.50;80.50
6556;DHT22;3311;48.32423000;14.29074500;2023-07-29T02:42:32;22.50;80.60
6556;DHT22;3311;48.32423000;14.29074500;2023-07-29T02:44:59;22.50;80.50
6556;DHT22;3311;48.32423000;14.29074500;2023-07-29T02:47:26;22.50;80.40
6556;DHT22;3311;48.32423000;14.29074500;2023-07-29T02:49:55;22.50;80.40
6556;DHT22;3311;48.32423000;14.29074500;2023-07-29T02:52:22;22.50;80.30
6556;DHT22;3311;48.32423000;14.29074500;2023-07-29T02:54:49;22.50;80.40
6556;DHT22;3311;48.32423000;14.29074500;2023-07-29T02:57:17;22.60;80.40
6556;DHT22;3311;48.32423000;14.29074500;2023-07-29T02:59:44;22.60;80.30
6556;DHT22;3311;48.32423000;14.29074500;2023-07-29T03:02:11;22.50;80.30
6556;DHT22;3311;48.32423000;14.29074500;2023-07-29T03:04:39;22.50;80.30
6556;DHT22;3311;48.32423000;14.29074500;2023-07-29T03:07:07;22.60;80.20
6556;DHT22;3311;48.32423000;14.29074500;2023-07-29T03:09:36;22.60;80.20
6556;DHT22;3311;48.32423000;14.29074500;2023-07-29T03:12:03;22.60;80.00
6556;DHT22;3311;48.32423000;14.29074500;2023-07-29T03:14:31;22.60;79.90
6556;DHT22;3311;48.32423000;14.29074500;2023-07-29T03:17:02;22.60;79.80
6556;DHT22;3311;48.32423000;14.29074500;2023-07-29T03:19:30;22.60;79.90
6556;DHT22;3311;48.32423000;14.29074500;2023-07-29T03:21:57;22.50;79.70
6556;DHT22;3311;48.32423000;14.29074500;2023-07-29T03:24:26;22.50;79.80
6556;DHT22;3311;48.32423000;14.29074500;2023-07-29T03:26:54;22.50;79.80
6556;DHT22;3311;48.32423000;14.29074500;2023-07-29T03:29:22;22.50;80.00
6556;DHT22;3311;48.32423000;14.29074500;2023-07-29T03:31:49;22.50;79.80
6556;DHT22;3311;48.32423000;14.29074500;2023-07-29T03:34:16;22.50;79.80
6556;DHT22;3311;48.32423000;14.29074500;2023-07-29T03:36:44;22.50;79.60
6556;DHT22;3311;48.32423000;14.29074500;2023-07-29T03:39:13;22.50;79.50
6556;DHT22;3311;48.32423000;14.29074500;2023-07-29T03:41:42;22.50;79.60
6556;DHT22;3311;48.32423000;14.29074500;2023-07-29T03:44:09;22.50;79.60
6556;DHT22;3311;48.32423000;14.29074500;2023-07-29T03:46:37;22.50;79.60
6556;DHT22;3311;48.32423000;14.29074500;2023-07-29T03:49:04;22.50;79.70
6556;DHT22;3311;48.32423000;14.29074500;2023-07-29T03:51:31;22.40;79.70
6556;DHT22;3311;48.32423000;14.29074500;2023-07-29T03:53:58;22.40;79.90
6556;DHT22;3311;48.32423000;14.29074500;2023-07-29T03:56:26;22.50;79.90
6556;DHT22;3311;48.32423000;14.29074500;2023-07-29T03:59:02;22.40;79.90
6556;DHT22;3311;48.32423000;14.29074500;2023-07-29T04:01:29;22.40;80.10
6556;DHT22;3311;48.32423000;14.29074500;2023-07-29T04:03:57;22.40;80.20
6556;DHT22;3311;48.32423000;14.29074500;2023-07-29T04:06:25;22.30;80.10
6556;DHT22;3311;48.32423000;14.29074500;2023-07-29T04:08:53;22.40;80.30
6556;DHT22;3311;48.32423000;14.29074500;2023-07-29T04:11:21;22.40;80.20
6556;DHT22;3311;48.32423000;14.29074500;2023-07-29T04:13:48;22.40;80.20
6556;DHT22;3311;48.32423000;14.29074500;2023-07-29T04:16:16;22.40;80.00
6556;DHT22;3311;48.32423000;14.29074500;2023-07-29T04:18:44;22.40;80.10
6556;DHT22;3311;48.32423000;14.29074500;2023-07-29T04:21:11;22.40;80.20
6556;DHT22;3311;48.32423000;14.29074500;2023-07-29T04:23:38;22.40;80.40
6556;DHT22;3311;48.32423000;14.29074500;2023-07-29T04:26:06;22.40;80.20
6556;DHT22;3311;48.32423000;14.29074500;2023-07-29T04:28:33;22.50;80.00
6556;DHT22;3311;48.32423000;14.29074500;2023-07-29T04:31:00;22.60;80.10
6556;DHT22;3311;48.32423000;14.29074500;2023-07-29T04:33:29;22.70;79.60
6556;DHT22;3311;48.32423000;14.29074500;2023-07-29T04:35:57;22.70;79.50
6556;DHT22;3311;48.32423000;14.29074500;2023-07-29T04:38:27;22.80;79.50
6556;DHT22;3311;48.32423000;14.29074500;2023-07-29T04:40:54;22.70;79.50
6556;DHT22;3311;48.32423000;14.29074500;2023-07-29T04:43:21;22.70;79.60
6556;DHT22;3311;48.32423000;14.29074500;2023-07-29T04:45:49;22.70;79.80
6556;DHT22;3311;48.32423000;14.29074500;2023-07-29T04:48:16;22.70;80.00
6556;DHT22;3311;48.32423000;14.29074500;2023-07-29T04:50:44;22.60;80.10
6556;DHT22;3311;48.32423000;14.29074500;2023-07-29T04:53:11;22.60;80.20
6556;DHT22;3311;48.32423000;14.29074500;2023-07-29T04:55:41;22.60;80.30
6556;DHT22;3311;48.32423000;14.29074500;2023-07-29T04:58:09;22.70;80.30
6556;DHT22;3311;48.32423000;14.29074500;2023-07-29T05:00:36;22.70;80.30
6556;DHT22;3311;48.32423000;14.29074500;2023-07-29T05:03:04;22.70;80.30
6556;DHT22;3311;48.32423000;14.29074500;2023-07-29T05:05:31;22.70;80.50
6556;DHT22;3311;48.32423000;14.29074500;2023-07-29T05:08:00;22.70;80.50
6556;DHT22;3311;48.32423000;14.29074500;2023-07-29T05:10:27;22.70;80.50
6556;DHT22;3311;48.32423000;14.29074500;2023-07-29T05:12:54;22.70;80.50
6556;DHT22;3311;48.32423000;14.29074500;2023-07-29T05:15:22;22.70;80.50
6556;DHT22;3311;48.32423000;14.29074500;2023-07-29T05:17:49;22.70;80.40
6556;DHT22;3311;48.32423000;14.29074500;2023-07-29T05:20:16;22.80;80.40
6556;DHT22;3311;48.32423000;14.29074500;2023-07-29T05:22:43;22.80;80.30
6556;DHT22;3311;48.32423000;14.29074500;2023-07-29T05:25:12;22.80;80.30
6556;DHT22;3311;48.32423000;14.29074500;2023-07-29T05:27:39;22.80;80.30
6556;DHT22;3311;48.32423000;14.29074500;2023-07-29T05:30:08;22.80;80.30
6556;DHT22;3311;48.32423000;14.29074500;2023-07-29T05:32:35;22.80;80.40
6556;DHT22;3311;48.32423000;14.29074500;2023-07-29T05:35:02;22.80;80.40
6556;DHT22;3311;48.32423000;14.29074500;2023-07-29T05:37:30;22.80;80.50
6556;DHT22;3311;48.32423000;14.29074500;2023-07-29T05:39:57;22.80;80.60
6556;DHT22;3311;48.32423000;14.29074500;2023-07-29T05:42:25;22.80;80.60
6556;DHT22;3311;48.32423000;14.29074500;2023-07-29T05:44:52;22.80;80.70
6556;DHT22;3311;48.32423000;14.29074500;2023-07-29T05:47:20;22.80;80.70
6556;DHT22;3311;48.32423000;14.29074500;2023-07-29T05:49:47;22.80;80.80
6556;DHT22;3311;48.32423000;14.29074500;2023-07-29T05:52:14;22.70;80.80
6556;DHT22;3311;48.32423000;14.29074500;2023-07-29T05:54:41;22.80;80.80
6556;DHT22;3311;48.32423000;14.29074500;2023-07-29T05:57:09;23.00;80.70
6556;DHT22;3311;48.32423000;14.29074500;2023-07-29T05:59:38;23.00;80.30
6556;DHT22;3311;48.32423000;14.29074500;2023-07-29T06:02:05;23.10;80.20
6556;DHT22;3311;48.32423000;14.29074500;2023-07-29T06:04:33;23.10;80.10
6556;DHT22;3311;48.32423000;14.29074500;2023-07-29T06:07:00;23.20;80.60
6556;DHT22;3311;48.32423000;14.29074500;2023-07-29T06:09:27;23.20;79.90
6556;DHT22;3311;48.32423000;14.29074500;2023-07-29T06:11:54;23.30;79.90
6556;DHT22;3311;48.32423000;14.29074500;2023-07-29T06:14:21;23.40;79.80
6556;DHT22;3311;48.32423000;14.29074500;2023-07-29T06:16:50;23.50;79.40
6556;DHT22;3311;48.32423000;14.29074500;2023-07-29T06:19:18;23.50;78.90
6556;DHT22;3311;48.32423000;14.29074500;2023-07-29T06:21:45;23.60;78.60
6556;DHT22;3311;48.32423000;14.29074500;2023-07-29T06:24:12;23.70;78.10
6556;DHT22;3311;48.32423000;14.29074500;2023-07-29T06:26:40;23.80;77.70
6556;DHT22;3311;48.32423000;14.29074500;2023-07-29T06:29:07;23.80;77.30
6556;DHT22;3311;48.32423000;14.29074500;2023-07-29T06:31:34;23.90;77.10
6556;DHT22;3311;48.32423000;14.29074500;2023-07-29T06:34:03;24.00;77.00
6556;DHT22;3311;48.32423000;14.29074500;2023-07-29T06:36:30;24.00;76.70
6556;DHT22;3311;48.32423000;14.29074500;2023-07-29T06:38:57;24.00;76.50
6556;DHT22;3311;48.32423000;14.29074500;2023-07-29T06:41:24;24.10;76.50
6556;DHT22;3311;48.32423000;14.29074500;2023-07-29T06:43:51;24.10;76.20
6556;DHT22;3311;48.32423000;14.29074500;2023-07-29T06:46:18;24.10;76.10
6556;DHT22;3311;48.32423000;14.29074500;2023-07-29T06:48:46;24.20;76.00
6556;DHT22;3311;48.32423000;14.29074500;2023-07-29T06:51:14;24.20;75.90
6556;DHT22;3311;48.32423000;14.29074500;2023-07-29T06:53:41;24.30;75.90
6556;DHT22;3311;48.32423000;14.29074500;2023-07-29T06:56:09;24.30;75.70
6556;DHT22;3311;48.32423000;14.29074500;2023-07-29T06:58:36;24.30;75.60
6556;DHT22;3311;48.32423000;14.29074500;2023-07-29T07:01:03;24.40;75.50
6556;DHT22;3311;48.32423000;14.29074500;2023-07-29T07:03:31;24.40;75.40
6556;DHT22;3311;48.32423000;14.29074500;2023-07-29T07:05:58;24.40;75.30
6556;DHT22;3311;48.32423000;14.29074500;2023-07-29T07:08:27;24.50;75.40
6556;DHT22;3311;48.32423000;14.29074500;2023-07-29T07:10:56;24.40;75.20
6556;DHT22;3311;48.32423000;14.29074500;2023-07-29T07:13:23;24.50;75.30
6556;DHT22;3311;48.32423000;14.29074500;2023-07-29T07:15:50;24.50;75.30
6556;DHT22;3311;48.32423000;14.29074500;2023-07-29T07:18:21;24.50;75.10
6556;DHT22;3311;48.32423000;14.29074500;2023-07-29T07:20:48;24.50;76.10
6556;DHT22;3311;48.32423000;14.29074500;2023-07-29T07:23:16;24.40;75.70
6556;DHT22;3311;48.32423000;14.29074500;2023-07-29T07:25:45;24.30;75.90
6556;DHT22;3311;48.32423000;14.29074500;2023-07-29T07:28:12;24.20;75.90
6556;DHT22;3311;48.32423000;14.29074500;2023-07-29T07:30:40;24.20;76.00
6556;DHT22;3311;48.32423000;14.29074500;2023-07-29T07:33:08;24.20;76.00
6556;DHT22;3311;48.32423000;14.29074500;2023-07-29T07:35:35;24.20;76.00
6556;DHT22;3311;48.32423000;14.29074500;2023-07-29T07:38:02;24.20;76.20
6556;DHT22;3311;48.32423000;14.29074500;2023-07-29T07:40:30;24.20;76.30
6556;DHT22;3311;48.32423000;14.29074500;2023-07-29T07:42:59;24.20;76.20
6556;DHT22;3311;48.32423000;14.29074500;2023-07-29T07:45:26;24.10;76.20
6556;DHT22;3311;48.32423000;14.29074500;2023-07-29T07:47:53;24.10;76.30
6556;DHT22;3311;48.32423000;14.29074500;2023-07-29T07:50:20;24.10;76.20
6556;DHT22;3311;48.32423000;14.29074500;2023-07-29T07:52:49;24.10;76.10
6556;DHT22;3311;48.32423000;14.29074500;2023-07-29T07:55:17;24.10;76.10
6556;DHT22;3311;48.32423000;14.29074500;2023-07-29T07:57:44;24.10;76.00
6556;DHT22;3311;48.32423000;14.29074500;2023-07-29T08:00:14;24.10;76.10
6556;DHT22;3311;48.32423000;14.29074500;2023-07-29T08:02:44;24.10;76.30
6556;DHT22;3311;48.32423000;14.29074500;2023-07-29T08:05:11;24.10;76.20
6556;DHT22;3311;48.32423000;14.29074500;2023-07-29T08:07:39;24.00;76.00
6556;DHT22;3311;48.32423000;14.29074500;2023-07-29T08:10:07;24.00;75.90
6556;DHT22;3311;48.32423000;14.29074500;2023-07-29T08:12:35;24.00;75.80
6556;DHT22;3311;48.32423000;14.29074500;2023-07-29T08:15:02;24.10;75.70
6556;DHT22;3311;48.32423000;14.29074500;2023-07-29T08:17:31;24.10;75.30
6556;DHT22;3311;48.32423000;14.29074500;2023-07-29T08:19:58;24.10;74.90
6556;DHT22;3311;48.32423000;14.29074500;2023-07-29T08:22:26;24.20;74.50
6556;DHT22;3311;48.32423000;14.29074500;2023-07-29T08:24:53;24.20;74.40
6556;DHT22;3311;48.32423000;14.29074500;2023-07-29T08:27:20;24.20;74.50
6556;DHT22;3311;48.32423000;14.29074500;2023-07-29T08:29:47;24.10;74.60
6556;DHT22;3311;48.32423000;14.29074500;2023-07-29T08:32:15;24.10;74.80
6556;DHT22;3311;48.32423000;14.29074500;2023-07-29T08:34:44;24.10;74.90
6556;DHT22;3311;48.32423000;14.29074500;2023-07-29T08:37:11;24.00;74.70
6556;DHT22;3311;48.32423000;14.29074500;2023-07-29T08:39:39;24.10;74.70
6556;DHT22;3311;48.32423000;14.29074500;2023-07-29T08:42:08;24.10;74.60
6556;DHT22;3311;48.32423000;14.29074500;2023-07-29T08:44:41;24.10;74.70
6556;DHT22;3311;48.32423000;14.29074500;2023-07-29T08:47:09;24.10;75.00
6556;DHT22;3311;48.32423000;14.29074500;2023-07-29T08:49:37;24.00;74.90
6556;DHT22;3311;48.32423000;14.29074500;2023-07-29T08:52:07;24.10;74.60
6556;DHT22;3311;48.32423000;14.29074500;2023-07-29T08:54:36;24.00;74.30
6556;DHT22;3311;48.32423000;14.29074500;2023-07-29T08:57:04;24.00;74.40
6556;DHT22;3311;48.32423000;14.29074500;2023-07-29T08:59:33;24.00;74.30
6556;DHT22;3311;48.32423000;14.29074500;2023-07-29T09:02:01;24.10;74.30
6556;DHT22;3311;48.32423000;14.29074500;2023-07-29T09:04:28;24.00;74.30
6556;DHT22;3311;48.32423000;14.29074500;2023-07-29T09:06:56;24.00;74.40
6556;DHT22;3311;48.32423000;14.29074500;2023-07-29T09:09:25;23.90;74.10
6556;DHT22;3311;48.32423000;14.29074500;2023-07-29T09:11:53;23.90;74.10
6556;DHT22;3311;48.32423000;14.29074500;2023-07-29T09:14:20;23.90;74.10
6556;DHT22;3311;48.32423000;14.29074500;2023-07-29T09:16:48;23.90;74.20
6556;DHT22;3311;48.32423000;14.29074500;2023-07-29T09:19:15;23.90;74.20
6556;DHT22;3311;48.32423000;14.29074500;2023-07-29T09:21:42;23.90;74.20
6556;DHT22;3311;48.32423000;14.29074500;2023-07-29T09:24:16;23.90;74.40
6556;DHT22;3311;48.32423000;14.29074500;2023-07-29T09:26:50;23.90;74.50
6556;DHT22;3311;48.32423000;14.29074500;2023-07-29T09:29:22;23.90;74.60
6556;DHT22;3311;48.32423000;14.29074500;2023-07-29T09:31:50;23.90;74.80
6556;DHT22;3311;48.32423000;14.29074500;2023-07-29T09:34:17;23.90;75.00
6556;DHT22;3311;48.32423000;14.29074500;2023-07-29T09:36:44;23.90;75.20
6556;DHT22;3311;48.32423000;14.29074500;2023-07-29T09:39:12;23.90;75.50
6556;DHT22;3311;48.32423000;14.29074500;2023-07-29T09:41:40;23.90;75.90
6556;DHT22;3311;48.32423000;14.29074500;2023-07-29T09:44:10;23.90;76.10
6556;DHT22;3311;48.32423000;14.29074500;2023-07-29T09:46:38;23.80;76.40
6556;DHT22;3311;48.32423000;14.29074500;2023-07-29T09:49:07;23.90;76.60
6556;DHT22;3311;48.32423000;14.29074500;2023-07-29T09:51:38;23.90;76.70
6556;DHT22;3311;48.32423000;14.29074500;2023-07-29T09:54:06;23.90;76.80
6556;DHT22;3311;48.32423000;14.29074500;2023-07-29T09:56:33;23.80;76.80
6556;DHT22;3311;48.32423000;14.29074500;2023-07-29T09:59:00;23.80;77.10
6556;DHT22;3311;48.32423000;14.29074500;2023-07-29T10:01:29;23.80;77.40
6556;DHT22;3311;48.32423000;14.29074500;2023-07-29T10:03:56;23.80;77.80
6556;DHT22;3311;48.32423000;14.29074500;2023-07-29T10:06:26;23.80;78.10
6556;DHT22;3311;48.32423000;14.29074500;2023-07-29T10:08:56;23.80;78.20
6556;DHT22;3311;48.32423000;14.29074500;2023-07-29T10:11:24;23.70;78.30
6556;DHT22;3311;48.32423000;14.29074500;2023-07-29T10:13:52;23.70;79.20
6556;DHT22;3311;48.32423000;14.29074500;2023-07-29T10:16:20;23.70;82.10
6556;DHT22;3311;48.32423000;14.29074500;2023-07-29T10:18:52;23.70;83.90
6556;DHT22;3311;48.32423000;14.29074500;2023-07-29T10:21:22;23.70;85.30
6556;DHT22;3311;48.32423000;14.29074500;2023-07-29T10:23:53;23.70;86.20
6556;DHT22;3311;48.32423000;14.29074500;2023-07-29T10:26:28;23.70;86.70
6556;DHT22;3311;48.32423000;14.29074500;2023-07-29T10:28:59;23.70;87.50
6556;DHT22;3311;48.32423000;14.29074500;2023-07-29T10:31:31;23.60;88.30
6556;DHT22;3311;48.32423000;14.29074500;2023-07-29T10:34:01;23.70;88.70
6556;DHT22;3311;48.32423000;14.29074500;2023-07-29T10:36:29;23.70;89.50
6556;DHT22;3311;48.32423000;14.29074500;2023-07-29T10:38:56;23.70;90.10
6556;DHT22;3311;48.32423000;14.29074500;2023-07-29T10:41:23;23.70;90.30
6556;DHT22;3311;48.32423000;14.29074500;2023-07-29T10:43:50;23.70;90.40
6556;DHT22;3311;48.32423000;14.29074500;2023-07-29T10:46:19;23.70;90.70
6556;DHT22;3311;48.32423000;14.29074500;2023-07-29T10:48:53;23.70;90.40
6556;DHT22;3311;48.32423000;14.29074500;2023-07-29T10:51:26;23.70;90.40
6556;DHT22;3311;48.32423000;14.29074500;2023-07-29T10:53:57;23.70;90.50
6556;DHT22;3311;48.32423000;14.29074500;2023-07-29T10:56:29;23.70;90.20
6556;DHT22;3311;48.32423000;14.29074500;2023-07-29T10:58:58;23.80;90.10
6556;DHT22;3311;48.32423000;14.29074500;2023-07-29T11:01:30;23.80;90.00
6556;DHT22;3311;48.32423000;14.29074500;2023-07-29T11:04:23;23.80;89.90
6556;DHT22;3311;48.32423000;14.29074500;2023-07-29T11:07:19;23.90;89.70
6556;DHT22;3311;48.32423000;14.29074500;2023-07-29T11:09:54;23.90;89.30
6556;DHT22;3311;48.32423000;14.29074500;2023-07-29T11:12:42;23.90;89.50
6556;DHT22;3311;48.32423000;14.29074500;2023-07-29T11:15:17;23.90;89.50
6556;DHT22;3311;48.32423000;14.29074500;2023-07-29T11:17:47;23.90;89.70
6556;DHT22;3311;48.32423000;14.29074500;2023-07-29T11:20:16;23.90;89.60
6556;DHT22;3311;48.32423000;14.29074500;2023-07-29T11:22:45;23.90;89.50
6556;DHT22;3311;48.32423000;14.29074500;2023-07-29T11:25:14;23.90;89.70
6556;DHT22;3311;48.32423000;14.29074500;2023-07-29T11:27:43;23.90;89.70
6556;DHT22;3311;48.32423000;14.29074500;2023-07-29T11:30:13;23.90;89.80
6556;DHT22;3311;48.32423000;14.29074500;2023-07-29T11:32:42;23.90;89.40
6556;DHT22;3311;48.32423000;14.29074500;2023-07-29T11:35:11;24.00;89.00
6556;DHT22;3311;48.32423000;14.29074500;2023-07-29T11:37:39;24.00;88.60
6556;DHT22;3311;48.32423000;14.29074500;2023-07-29T11:40:09;24.00;88.40
6556;DHT22;3311;48.32423000;14.29074500;2023-07-29T11:42:37;24.00;88.00
6556;DHT22;3311;48.32423000;14.29074500;2023-07-29T11:45:06;24.00;87.90
6556;DHT22;3311;48.32423000;14.29074500;2023-07-29T11:47:35;24.00;88.30
6556;DHT22;3311;48.32423000;14.29074500;2023-07-29T11:50:03;24.00;88.80
6556;DHT22;3311;48.32423000;14.29074500;2023-07-29T11:52:32;24.00;89.00
6556;DHT22;3311;48.32423000;14.29074500;2023-07-29T11:55:01;24.10;88.80
6556;DHT22;3311;48.32423000;14.29074500;2023-07-29T11:57:32;24.10;88.50
6556;DHT22;3311;48.32423000;14.29074500;2023-07-29T12:00:02;24.10;88.40
6556;DHT22;3311;48.32423000;14.29074500;2023-07-29T12:02:31;24.10;88.10
6556;DHT22;3311;48.32423000;14.29074500;2023-07-29T12:04:59;24.10;87.90
6556;DHT22;3311;48.32423000;14.29074500;2023-07-29T12:07:27;24.10;87.70
6556;DHT22;3311;48.32423000;14.29074500;2023-07-29T12:09:55;24.10;87.50
6556;DHT22;3311;48.32423000;14.29074500;2023-07-29T12:12:23;24.10;87.20
6556;DHT22;3311;48.32423000;14.29074500;2023-07-29T12:14:55;24.10;87.30
6556;DHT22;3311;48.32423000;14.29074500;2023-07-29T12:17:22;24.10;87.30
6556;DHT22;3311;48.32423000;14.29074500;2023-07-29T12:19:49;24.00;86.90
6556;DHT22;3311;48.32423000;14.29074500;2023-07-29T12:22:20;24.00;86.30
6556;DHT22;3311;48.32423000;14.29074500;2023-07-29T12:24:48;24.00;86.40
6556;DHT22;3311;48.32423000;14.29074500;2023-07-29T12:27:18;24.10;86.60
6556;DHT22;3311;48.32423000;14.29074500;2023-07-29T12:29:45;24.10;85.80
6556;DHT22;3311;48.32423000;14.29074500;2023-07-29T12:32:16;24.10;85.90
6556;DHT22;3311;48.32423000;14.29074500;2023-07-29T12:34:45;24.10;86.00
6556;DHT22;3311;48.32423000;14.29074500;2023-07-29T12:37:12;24.10;85.60
6556;DHT22;3311;48.32423000;14.29074500;2023-07-29T12:39:40;24.10;85.80
6556;DHT22;3311;48.32423000;14.29074500;2023-07-29T12:42:08;24.10;85.80
6556;DHT22;3311;48.32423000;14.29074500;2023-07-29T12:44:38;24.10;85.80
6556;DHT22;3311;48.32423000;14.29074500;2023-07-29T12:47:06;24.10;85.80
6556;DHT22;3311;48.32423000;14.29074500;2023-07-29T12:49:36;24.10;85.70
6556;DHT22;3311;48.32423000;14.29074500;2023-07-29T12:52:04;24.10;85.60
6556;DHT22;3311;48.32423000;14.29074500;2023-07-29T12:54:32;24.10;85.40
6556;DHT22;3311;48.32423000;14.29074500;2023-07-29T12:57:01;24.10;85.10
6556;DHT22;3311;48.32423000;14.29074500;2023-07-29T12:59:30;24.10;84.80
6556;DHT22;3311;48.32423000;14.29074500;2023-07-29T13:01:57;24.10;84.60
6556;DHT22;3311;48.32423000;14.29074500;2023-07-29T13:04:24;24.10;84.30
6556;DHT22;3311;48.32423000;14.29074500;2023-07-29T13:06:53;24.10;84.00
6556;DHT22;3311;48.32423000;14.29074500;2023-07-29T13:09:23;24.40;84.40
6556;DHT22;3311;48.32423000;14.29074500;2023-07-29T13:11:50;24.10;84.20
6556;DHT22;3311;48.32423000;14.29074500;2023-07-29T13:14:17;24.10;83.80
6556;DHT22;3311;48.32423000;14.29074500;2023-07-29T13:16:45;24.10;84.00
6556;DHT22;3311;48.32423000;14.29074500;2023-07-29T13:19:12;24.10;83.40
6556;DHT22;3311;48.32423000;14.29074500;2023-07-29T13:21:39;24.10;83.50
6556;DHT22;3311;48.32423000;14.29074500;2023-07-29T13:24:08;24.10;83.30
6556;DHT22;3311;48.32423000;14.29074500;2023-07-29T13:26:35;24.10;83.20
6556;DHT22;3311;48.32423000;14.29074500;2023-07-29T13:29:02;24.10;83.30
6556;DHT22;3311;48.32423000;14.29074500;2023-07-29T13:31:30;24.10;83.10
6556;DHT22;3311;48.32423000;14.29074500;2023-07-29T13:33:58;24.00;83.00
6556;DHT22;3311;48.32423000;14.29074500;2023-07-29T13:36:25;24.00;83.10
6556;DHT22;3311;48.32423000;14.29074500;2023-07-29T13:38:52;24.00;83.00
6556;DHT22;3311;48.32423000;14.29074500;2023-07-29T13:41:21;24.00;83.10